createdAt,value
2022-11-25T00:01:27.433Z,64.85
2022-11-25T00:03:29.595Z,65.03
2022-11-25T00:05:31.854Z,64.58
2022-11-25T00:07:36.854Z,64.49
2022-11-25T00:09:39.068Z,64.56
2022-11-25T00:11:42.941Z,64.48
2022-11-25T00:13:45.976Z,64.58
2022-11-25T00:15:48.178Z,64.34
2022-11-25T00:17:50.668Z,64.02
2022-11-25T00:19:52.754Z,64.64
2022-11-25T00:21:54.846Z,64.10
2022-11-25T00:24:00.710Z,64.28
2022-11-25T00:26:07.871Z,63.62
2022-11-25T00:28:10.030Z,63.35
2022-11-25T00:30:12.975Z,63.44
2022-11-25T00:32:15.183Z,63.39
2022-11-25T00:34:17.228Z,63.94
2022-11-25T00:36:25.550Z,63.54
2022-11-25T00:38:27.643Z,63.88
2022-11-25T00:40:29.841Z,63.20
2022-11-25T00:42:35.073Z,63.64
2022-11-25T00:44:38.470Z,63.31
2022-11-25T00:46:41.561Z,63.26
2022-11-25T00:48:43.663Z,63.51
2022-11-25T00:50:45.768Z,63.68
2022-11-25T00:52:48.179Z,63.43
2022-11-25T00:54:51.218Z,63.39
2022-11-25T00:56:53.467Z,63.47
2022-11-25T00:58:55.589Z,63.77
2022-11-25T01:01:02.427Z,63.44
2022-11-25T01:03:04.615Z,63.51
2022-11-25T01:05:07.093Z,63.28
2022-11-25T01:07:09.557Z,63.64
2022-11-25T01:09:13.323Z,63.76
2022-11-25T01:11:18.548Z,62.91
2022-11-25T01:13:20.634Z,63.66
2022-11-25T01:15:22.753Z,63.45
2022-11-25T01:17:24.850Z,63.10
2022-11-25T01:19:27.140Z,62.89
2022-11-25T01:21:32.496Z,62.96
2022-11-25T01:23:35.482Z,62.90
2022-11-25T01:25:38.220Z,63.09
2022-11-25T01:27:43.219Z,62.50
2022-11-25T01:29:45.329Z,63.25
2022-11-25T01:31:48.794Z,62.70
2022-11-25T01:33:55.880Z,63.09
2022-11-25T01:35:58.032Z,62.81
2022-11-25T01:38:00.228Z,62.44
2022-11-25T01:40:02.374Z,62.50
2022-11-25T01:42:04.490Z,62.87
2022-11-25T01:44:10.269Z,63.24
2022-11-25T01:46:18.706Z,63.75
2022-11-25T01:48:29.427Z,62.77
2022-11-25T01:50:34.348Z,63.06
2022-11-25T01:52:40.742Z,62.72
2022-11-25T01:54:48.279Z,63.01
2022-11-25T01:56:57.477Z,63.23
2022-11-25T01:59:00.187Z,63.34
2022-11-25T02:01:02.236Z,63.59
2022-11-25T02:03:04.970Z,63.64
2022-11-25T02:05:11.334Z,63.60
2022-11-25T02:07:20.067Z,63.64
2022-11-25T02:09:23.690Z,63.56
2022-11-25T02:11:28.837Z,63.31
2022-11-25T02:13:32.888Z,63.26
2022-11-25T02:15:35.561Z,63.42
2022-11-25T02:17:37.910Z,63.28
2022-11-25T02:19:49.225Z,63.17
2022-11-25T02:21:56.953Z,62.81
2022-11-25T02:24:06.399Z,62.99
2022-11-25T02:26:08.774Z,63.51
2022-11-25T02:28:15.688Z,63.34
2022-11-25T02:30:17.999Z,63.04
2022-11-25T02:32:23.575Z,63.08
2022-11-25T02:34:25.823Z,63.01
2022-11-25T02:36:28.134Z,63.88
2022-11-25T02:38:37.104Z,63.24
2022-11-25T02:40:46.413Z,64.07
2022-11-25T02:42:50.776Z,63.54
2022-11-25T02:44:53.044Z,64.52
2022-11-25T02:46:55.217Z,64.40
2022-11-25T02:49:14.771Z,64.35
2022-11-25T02:51:19.689Z,64.55
2022-11-25T02:53:22.145Z,64.13
2022-11-25T02:55:24.278Z,64.69
2022-11-25T02:57:26.397Z,64.71
2022-11-25T02:59:28.574Z,64.33
2022-11-25T03:01:31.773Z,64.28
2022-11-25T03:03:34.373Z,64.70
2022-11-25T03:05:36.835Z,64.80
2022-11-25T03:07:39.792Z,64.89
2022-11-25T03:09:43.822Z,64.32
2022-11-25T03:11:49.265Z,64.22
2022-11-25T03:13:51.827Z,64.57
2022-11-25T03:15:54.213Z,64.39
2022-11-25T03:17:56.452Z,64.81
2022-11-25T03:19:58.752Z,64.50
2022-11-25T03:22:01.154Z,64.05
2022-11-25T03:24:03.675Z,64.09
2022-11-25T03:26:08.035Z,64.50
2022-11-25T03:28:10.268Z,64.16
2022-11-25T03:30:16.209Z,64.68
2022-11-25T03:32:18.496Z,64.37
2022-11-25T03:34:20.997Z,64.56
2022-11-25T03:36:23.419Z,64.39
2022-11-25T03:38:26.085Z,64.30
2022-11-25T03:40:28.665Z,64.20
2022-11-25T03:42:31.415Z,64.49
2022-11-25T03:44:33.910Z,64.47
2022-11-25T03:46:36.514Z,64.36
2022-11-25T03:48:38.951Z,64.51
2022-11-25T03:50:42.515Z,64.31
2022-11-25T03:52:44.995Z,64.08
2022-11-25T03:54:47.416Z,64.06
2022-11-25T03:56:49.958Z,64.56
2022-11-25T03:58:52.161Z,64.30
2022-11-25T04:00:54.683Z,64.49
2022-11-25T04:02:56.996Z,64.57
2022-11-25T04:04:59.428Z,64.63
2022-11-25T04:07:01.956Z,64.66
2022-11-25T04:09:04.365Z,64.43
2022-11-25T04:11:06.679Z,64.28
2022-11-25T04:13:09.065Z,64.09
2022-11-25T04:15:11.762Z,64.03
2022-11-25T04:17:14.149Z,64.78
2022-11-25T04:19:16.516Z,64.19
2022-11-25T04:21:18.805Z,64.45
2022-11-25T04:23:21.116Z,64.69
2022-11-25T04:25:23.392Z,64.90
2022-11-25T04:27:25.737Z,64.41
2022-11-25T04:29:28.844Z,64.57
2022-11-25T04:31:31.233Z,64.16
2022-11-25T04:33:33.402Z,64.25
2022-11-25T04:35:35.611Z,65.27
2022-11-25T04:37:38.041Z,64.43
2022-11-25T04:39:40.336Z,64.44
2022-11-25T04:41:42.597Z,64.67
2022-11-25T04:43:44.907Z,64.70
2022-11-25T04:46:13.113Z,64.46
2022-11-25T04:48:11.226Z,64.89
2022-11-25T04:50:17.368Z,64.63
2022-11-25T04:52:19.634Z,64.67
2022-11-25T04:54:21.923Z,64.35
2022-11-25T04:56:24.389Z,65.46
2022-11-25T04:58:30.095Z,64.75
2022-11-25T05:00:32.690Z,64.75
2022-11-25T05:02:35.013Z,64.92
2022-11-25T05:04:37.475Z,64.76
2022-11-25T05:06:40.036Z,64.92
2022-11-25T05:08:42.427Z,65.04
2022-11-25T05:10:44.736Z,65.14
2022-11-25T05:12:47.114Z,64.44
2022-11-25T05:14:50.148Z,64.29
2022-11-25T05:16:52.859Z,64.27
2022-11-25T05:18:57.000Z,65.19
2022-11-25T05:21:03.053Z,65.38
2022-11-25T05:23:05.186Z,64.68
2022-11-25T05:25:07.923Z,64.73
2022-11-25T05:27:10.403Z,64.90
2022-11-25T05:29:12.564Z,64.86
2022-11-25T05:31:14.656Z,64.72
2022-11-25T05:33:16.833Z,64.40
2022-11-25T05:35:19.198Z,64.38
2022-11-25T05:37:24.405Z,64.98
2022-11-25T05:39:26.770Z,64.33
2022-11-25T05:41:28.837Z,65.07
2022-11-25T05:43:30.939Z,65.36
2022-11-25T05:45:33.090Z,65.19
2022-11-25T05:47:35.393Z,64.77
2022-11-25T05:49:37.447Z,65.50
2022-11-25T05:51:39.622Z,65.83
2022-11-25T05:53:41.726Z,65.10
2022-11-25T05:55:44.525Z,65.23
2022-11-25T05:57:49.563Z,65.25
2022-11-25T05:59:51.837Z,65.74
2022-11-25T06:01:54.670Z,65.46
2022-11-25T06:04:00.508Z,65.74
2022-11-25T06:06:02.826Z,65.94
2022-11-25T06:08:05.218Z,65.53
2022-11-25T06:10:08.259Z,65.45
2022-11-25T06:12:10.502Z,66.03
2022-11-25T06:14:12.603Z,65.57
2022-11-25T06:16:17.929Z,65.07
2022-11-25T06:18:20.126Z,65.33
2022-11-25T06:20:22.201Z,65.43
2022-11-25T06:22:24.328Z,64.82
2022-11-25T06:24:26.467Z,65.16
2022-11-25T06:26:28.608Z,65.21
2022-11-25T06:28:30.727Z,65.32
2022-11-25T06:30:32.803Z,65.64
2022-11-25T06:32:37.488Z,65.54
2022-11-25T06:34:42.959Z,65.52
2022-11-25T06:36:45.236Z,65.66
2022-11-25T06:38:49.358Z,65.97
2022-11-25T06:40:54.008Z,65.24
2022-11-25T06:42:56.379Z,65.03
2022-11-25T06:44:58.571Z,65.14
2022-11-25T06:47:00.656Z,65.66
2022-11-25T06:49:02.763Z,65.14
2022-11-25T06:51:07.936Z,64.81
2022-11-25T06:53:10.048Z,64.89
2022-11-25T06:55:12.213Z,65.40
2022-11-25T06:57:18.831Z,65.18
2022-11-25T06:59:22.180Z,65.03
2022-11-25T07:01:28.190Z,65.10
2022-11-25T07:03:30.515Z,65.58
2022-11-25T07:05:32.717Z,65.80
2022-11-25T07:07:34.840Z,65.08
2022-11-25T07:09:37.296Z,65.61
2022-11-25T07:11:40.720Z,65.36
2022-11-25T07:13:42.959Z,65.70
2022-11-25T07:15:45.037Z,65.42
2022-11-25T07:17:47.104Z,65.73
2022-11-25T07:19:49.223Z,64.63
2022-11-25T07:21:51.496Z,65.20
2022-11-25T07:23:53.776Z,64.78
2022-11-25T07:25:55.952Z,65.39
2022-11-25T07:27:58.139Z,65.51
2022-11-25T07:30:41.087Z,65.56
2022-11-25T07:32:22.650Z,64.79
2022-11-25T07:34:24.801Z,64.68
2022-11-25T07:36:28.175Z,65.37
2022-11-25T07:38:30.225Z,65.41
2022-11-25T07:40:32.521Z,64.72
2022-11-25T07:42:34.586Z,64.89
2022-11-25T07:44:36.704Z,64.95
2022-11-25T07:46:41.618Z,64.80
2022-11-25T07:48:45.287Z,65.08
2022-11-25T07:50:50.343Z,65.54
2022-11-25T07:52:52.562Z,65.21
2022-11-25T07:54:54.665Z,65.56
2022-11-25T07:56:56.987Z,65.34
2022-11-25T07:58:59.128Z,65.84
2022-11-25T08:01:05.335Z,65.87
2022-11-25T08:03:07.393Z,64.98
2022-11-25T08:05:10.117Z,65.23
2022-11-25T08:07:12.391Z,65.53
2022-11-25T08:09:19.639Z,64.77
2022-11-25T08:11:26.685Z,65.47
2022-11-25T08:13:28.802Z,65.33
2022-11-25T08:15:32.367Z,65.02
2022-11-25T08:17:34.425Z,65.46
2022-11-25T08:19:37.097Z,65.42
2022-11-25T08:21:39.279Z,65.13
2022-11-25T08:23:44.187Z,64.85
2022-11-25T08:25:50.395Z,64.90
2022-11-25T08:27:52.936Z,64.74
2022-11-25T08:29:55.067Z,65.17
2022-11-25T08:31:58.700Z,65.07
2022-11-25T08:34:01.092Z,65.23
2022-11-25T08:36:04.008Z,64.88
2022-11-25T08:38:07.967Z,64.90
2022-11-25T08:40:11.223Z,65.27
2022-11-25T08:42:15.249Z,65.37
2022-11-25T08:44:17.633Z,65.00
2022-11-25T08:46:23.172Z,64.38
2022-11-25T08:48:25.238Z,65.48
2022-11-25T08:50:27.370Z,64.62
2022-11-25T08:52:29.424Z,64.27
2022-11-25T08:54:31.629Z,64.74
2022-11-25T08:56:34.150Z,64.92
2022-11-25T08:58:37.315Z,65.15
2022-11-25T09:00:42.144Z,65.72
2022-11-25T09:02:44.561Z,65.39
2022-11-25T09:04:46.695Z,65.40
2022-11-25T09:06:48.803Z,65.46
2022-11-25T09:08:51.769Z,65.13
2022-11-25T09:10:54.104Z,65.25
2022-11-25T09:12:56.309Z,64.90
2022-11-25T09:14:58.736Z,64.96
2022-11-25T09:17:02.420Z,64.60
2022-11-25T09:19:04.562Z,64.17
2022-11-25T09:21:11.002Z,64.61
2022-11-25T09:23:13.553Z,64.75
2022-11-25T09:25:15.905Z,64.42
2022-11-25T09:27:18.055Z,64.82
2022-11-25T09:29:20.781Z,64.36
2022-11-25T09:31:23.972Z,64.28
2022-11-25T09:33:26.359Z,64.83
2022-11-25T09:35:28.400Z,63.84
2022-11-25T09:37:30.883Z,64.60
2022-11-25T09:39:35.812Z,63.88
2022-11-25T09:41:45.770Z,63.50
2022-11-25T09:43:53.943Z,63.76
2022-11-25T09:46:07.274Z,63.50
2022-11-25T09:48:15.536Z,63.92
2022-11-25T09:50:24.220Z,63.99
2022-11-25T09:52:44.969Z,63.68
2022-11-25T09:54:53.305Z,64.02
2022-11-25T09:57:03.447Z,63.56
2022-11-25T09:59:13.286Z,63.27
2022-11-25T10:01:20.070Z,63.62
2022-11-25T10:03:24.046Z,62.89
2022-11-25T10:05:32.305Z,62.74
2022-11-25T10:07:39.820Z,62.49
2022-11-25T10:09:42.210Z,62.58
2022-11-25T10:11:51.662Z,62.77
2022-11-25T10:14:01.498Z,62.72
2022-11-25T10:16:08.512Z,62.16
2022-11-25T10:18:21.884Z,61.67
2022-11-25T10:20:30.219Z,61.78
2022-11-25T10:22:37.782Z,61.98
2022-11-25T10:24:41.539Z,62.02
2022-11-25T10:26:51.664Z,61.31
2022-11-25T10:29:07.356Z,61.32
2022-11-25T10:31:15.967Z,61.00
2022-11-25T10:33:23.233Z,60.62
2022-11-25T10:35:32.420Z,60.92
2022-11-25T10:37:40.963Z,60.29
2022-11-25T10:39:43.444Z,60.11
2022-11-25T10:41:53.159Z,59.93
2022-11-25T10:43:58.141Z,60.19
2022-11-25T10:46:04.262Z,60.07
2022-11-25T10:48:21.200Z,60.22
2022-11-25T10:50:29.713Z,59.81
2022-11-25T10:52:38.240Z,59.21
2022-11-25T10:54:41.048Z,59.55
2022-11-25T10:56:48.350Z,59.87
2022-11-25T10:58:50.964Z,59.97
2022-11-25T11:01:05.552Z,59.78
2022-11-25T11:03:14.406Z,59.46
2022-11-25T11:05:23.666Z,58.56
2022-11-25T11:07:29.988Z,58.41
2022-11-25T11:09:36.986Z,58.22
2022-11-25T11:11:49.325Z,58.02
2022-11-25T11:14:00.050Z,58.16
2022-11-25T11:16:02.391Z,57.14
2022-11-25T11:18:10.811Z,57.27
2022-11-25T11:20:21.703Z,57.36
2022-11-25T11:22:27.182Z,56.93
2022-11-25T11:24:36.012Z,56.92
2022-11-25T11:26:38.293Z,56.89
2022-11-25T11:28:41.631Z,57.24
2022-11-25T11:30:57.508Z,56.94
2022-11-25T11:33:05.855Z,56.77
2022-11-25T11:35:23.542Z,56.46
2022-11-25T11:37:31.764Z,56.46
2022-11-25T11:39:38.020Z,55.75
2022-11-25T11:41:52.561Z,55.79
2022-11-25T11:44:00.915Z,55.58
2022-11-25T11:46:13.228Z,55.29
2022-11-25T11:48:22.017Z,55.66
2022-11-25T11:50:32.341Z,55.18
2022-11-25T11:52:38.063Z,55.37
2022-11-25T11:54:47.241Z,55.04
2022-11-25T11:56:55.389Z,54.13
2022-11-25T11:59:09.142Z,54.12
2022-11-25T12:01:13.295Z,52.93
2022-11-25T12:03:21.824Z,52.04
2022-11-25T12:05:28.749Z,52.65
2022-11-25T12:07:34.442Z,51.72
2022-11-25T12:09:44.501Z,52.43
2022-11-25T12:11:52.600Z,51.51
2022-11-25T12:14:01.362Z,50.58
2022-11-25T12:16:09.316Z,49.61
2022-11-25T12:18:21.057Z,49.88
2022-11-25T12:20:33.955Z,50.46
2022-11-25T12:22:45.040Z,49.71
2022-11-25T12:24:56.092Z,49.25
2022-11-25T12:27:04.179Z,49.64
2022-11-25T12:29:12.135Z,50.38
2022-11-25T12:31:18.310Z,49.89
2022-11-25T12:33:27.341Z,49.08
2022-11-25T12:35:35.912Z,48.71
2022-11-25T12:37:44.842Z,48.88
2022-11-25T12:40:05.529Z,49.27
2022-11-25T12:42:14.463Z,49.13
2022-11-25T12:44:18.623Z,48.99
2022-11-25T12:46:24.609Z,48.82
2022-11-25T12:48:27.260Z,49.14
2022-11-25T12:50:36.230Z,49.28
2022-11-25T12:52:43.164Z,49.46
2022-11-25T12:54:49.695Z,48.88
2022-11-25T12:56:56.552Z,49.12
2022-11-25T12:59:05.067Z,49.02
2022-11-25T13:01:10.785Z,49.34
2022-11-25T13:03:19.312Z,49.48
2022-11-25T13:05:40.610Z,49.91
2022-11-25T13:07:49.187Z,49.68
2022-11-25T13:09:55.765Z,49.35
2022-11-25T13:12:06.063Z,48.99
2022-11-25T13:14:15.167Z,49.62
2022-11-25T13:16:20.379Z,49.32
2022-11-25T13:18:25.666Z,48.87
2022-11-25T13:20:28.644Z,49.06
2022-11-25T13:22:30.869Z,48.86
2022-11-25T13:24:39.828Z,48.62
2022-11-25T13:26:47.504Z,48.71
2022-11-25T13:28:52.044Z,48.88
2022-11-25T13:30:54.776Z,48.56
2022-11-25T13:32:57.361Z,47.93
2022-11-25T13:35:22.527Z,47.62
2022-11-25T13:37:36.231Z,47.83
2022-11-25T13:39:39.272Z,48.23
2022-11-25T13:41:47.887Z,47.21
2022-11-25T13:43:58.576Z,46.90
2022-11-25T13:46:03.764Z,47.66
2022-11-25T13:48:11.068Z,47.56
2022-11-25T13:50:21.819Z,47.34
2022-11-25T13:52:33.224Z,47.31
2022-11-25T13:54:44.478Z,47.88
2022-11-25T13:57:01.207Z,47.85
2022-11-25T13:59:11.581Z,48.01
2022-11-25T14:01:24.876Z,48.09
2022-11-25T14:03:32.730Z,48.16
2022-11-25T14:05:38.365Z,47.95
2022-11-25T14:07:45.345Z,47.68
2022-11-25T14:10:01.642Z,47.91
2022-11-25T14:12:17.701Z,47.93
2022-11-25T14:14:26.074Z,48.87
2022-11-25T14:16:34.421Z,48.38
2022-11-25T14:19:21.866Z,47.92
2022-11-25T14:21:19.685Z,48.59
2022-11-25T14:23:25.290Z,49.20
2022-11-25T14:25:34.534Z,48.38
2022-11-25T14:27:37.134Z,48.64
2022-11-25T14:29:46.723Z,48.77
2022-11-25T14:31:54.542Z,48.78
2022-11-25T14:34:04.525Z,49.02
2022-11-25T14:36:14.725Z,49.34
2022-11-25T14:38:22.505Z,49.46
2022-11-25T14:40:29.777Z,49.27
2022-11-25T14:42:38.363Z,49.28
2022-11-25T14:44:48.296Z,49.50
2022-11-25T14:46:56.143Z,49.37
2022-11-25T14:49:05.104Z,49.86
2022-11-25T14:51:11.032Z,49.81
2022-11-25T14:53:14.893Z,49.85
2022-11-25T14:55:23.203Z,50.50
2022-11-25T14:57:27.966Z,50.64
2022-11-25T14:59:30.268Z,50.71
2022-11-25T15:01:35.176Z,50.68
2022-11-25T15:03:37.464Z,50.31
2022-11-25T15:05:41.446Z,50.62
2022-11-25T15:07:57.169Z,50.85
2022-11-25T15:09:59.545Z,50.83
2022-11-25T15:12:07.287Z,50.92
2022-11-25T15:14:24.021Z,51.13
2022-11-25T15:16:35.295Z,51.22
2022-11-25T15:18:39.658Z,51.77
2022-11-25T15:20:47.585Z,51.88
2022-11-25T15:22:52.788Z,51.96
2022-11-25T15:25:06.882Z,51.77
2022-11-25T15:27:15.120Z,51.93
2022-11-25T15:29:17.860Z,52.47
2022-11-25T15:31:21.928Z,52.37
2022-11-25T15:33:26.280Z,52.43
2022-11-25T15:35:28.580Z,52.49
2022-11-25T15:37:30.658Z,52.30
2022-11-25T15:39:32.918Z,52.32
2022-11-25T15:41:36.897Z,52.60
2022-11-25T15:43:42.324Z,52.65
2022-11-25T15:45:46.736Z,52.92
2022-11-25T15:47:49.609Z,52.73
2022-11-25T15:50:00.216Z,53.22
2022-11-25T15:52:06.335Z,53.24
2022-11-25T15:54:16.648Z,53.74
2022-11-25T15:56:23.924Z,53.58
2022-11-25T15:58:26.805Z,53.77
2022-11-25T16:00:29.525Z,53.96
2022-11-25T16:02:35.336Z,54.06
2022-11-25T16:04:42.254Z,53.98
2022-11-25T16:06:54.757Z,54.12
2022-11-25T16:09:07.991Z,54.80
2022-11-25T16:11:17.356Z,54.44
2022-11-25T16:13:23.905Z,54.53
2022-11-25T16:15:45.997Z,54.33
2022-11-25T16:17:48.901Z,54.64
2022-11-25T16:19:51.486Z,54.88
2022-11-25T16:21:59.653Z,54.75
2022-11-25T16:24:06.269Z,54.93
2022-11-25T16:26:12.277Z,54.79
2022-11-25T16:28:20.940Z,55.16
2022-11-25T16:30:23.415Z,55.22
2022-11-25T16:32:28.970Z,55.50
2022-11-25T16:34:32.210Z,55.20
2022-11-25T16:36:34.908Z,55.10
2022-11-25T16:38:37.320Z,55.50
2022-11-25T16:40:40.276Z,55.75
2022-11-25T16:42:47.396Z,55.96
2022-11-25T16:44:52.181Z,55.95
2022-11-25T16:46:55.241Z,56.42
2022-11-25T16:48:57.828Z,56.11
2022-11-25T16:51:00.860Z,56.68
2022-11-25T16:53:03.104Z,56.67
2022-11-25T16:55:07.204Z,56.87
2022-11-25T16:57:17.462Z,57.08
2022-11-25T16:59:26.044Z,56.79
2022-11-25T17:01:30.310Z,56.70
2022-11-25T17:03:33.044Z,56.85
2022-11-25T17:05:36.273Z,56.85
2022-11-25T17:07:38.908Z,56.62
2022-11-25T17:09:41.972Z,56.99
2022-11-25T17:11:54.939Z,57.29
2022-11-25T17:14:01.908Z,57.40
2022-11-25T17:16:05.697Z,57.56
2022-11-25T17:18:08.894Z,57.25
2022-11-25T17:20:17.939Z,57.36
2022-11-25T17:22:23.930Z,57.58
2022-11-25T17:24:27.616Z,57.75
2022-11-25T17:26:36.941Z,57.73
2022-11-25T17:28:39.571Z,57.85
2022-11-25T17:30:43.719Z,57.80
2022-11-25T17:32:47.713Z,58.11
2022-11-25T17:34:50.519Z,57.96
2022-11-25T17:36:53.090Z,58.09
2022-11-25T17:38:55.636Z,58.00
2022-11-25T17:40:58.117Z,58.41
2022-11-25T17:43:00.832Z,58.36
2022-11-25T17:45:03.348Z,58.31
2022-11-25T17:47:12.668Z,58.48
2022-11-25T17:49:16.213Z,58.42
2022-11-25T17:51:18.499Z,58.20
2022-11-25T17:53:20.863Z,58.59
2022-11-25T17:55:23.378Z,58.35
2022-11-25T17:57:29.526Z,58.85
2022-11-25T17:59:34.240Z,58.58
2022-11-25T18:01:36.757Z,58.73
2022-11-25T18:03:39.126Z,58.79
2022-11-25T18:05:41.652Z,58.61
2022-11-25T18:07:44.780Z,58.37
2022-11-25T18:09:47.565Z,58.19
2022-11-25T18:11:53.514Z,58.54
2022-11-25T18:13:56.237Z,58.72
2022-11-25T18:15:58.453Z,58.27
2022-11-25T18:18:05.025Z,58.26
2022-11-25T18:20:15.462Z,58.68
2022-11-25T18:22:19.899Z,58.78
2022-11-25T18:24:22.682Z,58.52
2022-11-25T18:26:25.160Z,58.86
2022-11-25T18:28:30.814Z,58.49
2022-11-25T18:30:36.563Z,58.52
2022-11-25T18:32:39.086Z,58.64
2022-11-25T18:34:41.516Z,58.51
2022-11-25T18:36:44.519Z,58.44
2022-11-25T18:38:48.593Z,58.45
2022-11-25T18:40:53.746Z,58.99
2022-11-25T18:43:00.648Z,59.03
2022-11-25T18:45:03.266Z,58.63
2022-11-25T18:47:10.120Z,58.74
2022-11-25T18:49:14.085Z,58.83
2022-11-25T18:51:16.298Z,58.70
2022-11-25T18:53:18.882Z,59.20
2022-11-25T18:55:23.617Z,59.04
2022-11-25T18:57:25.924Z,59.18
2022-11-25T18:59:34.752Z,59.20
2022-11-25T19:01:37.493Z,59.17
2022-11-25T19:03:40.872Z,59.19
2022-11-25T19:05:44.085Z,59.07
2022-11-25T19:07:48.744Z,59.69
2022-11-25T19:09:51.829Z,58.90
2022-11-25T19:11:55.881Z,59.41
2022-11-25T19:14:05.542Z,59.48
2022-11-25T19:16:13.782Z,59.54
2022-11-25T19:18:25.746Z,59.11
2022-11-25T19:20:29.017Z,59.17
2022-11-25T19:22:31.973Z,59.91
2022-11-25T19:24:35.599Z,59.51
2022-11-25T19:26:44.153Z,59.83
2022-11-25T19:28:51.511Z,59.79
2022-11-25T19:31:00.217Z,59.92
2022-11-25T19:33:03.702Z,59.42
2022-11-25T19:35:09.357Z,59.56
2022-11-25T19:37:21.032Z,59.75
2022-11-25T19:39:24.169Z,59.46
2022-11-25T19:41:27.011Z,59.46
2022-11-25T19:43:29.919Z,59.89
2022-11-25T19:45:33.199Z,59.91
2022-11-25T19:47:36.740Z,59.80
2022-11-25T19:49:39.812Z,59.74
2022-11-25T19:51:43.297Z,59.65
2022-11-25T19:53:45.812Z,59.74
2022-11-25T19:55:49.385Z,60.25
2022-11-25T19:57:53.492Z,59.93
2022-11-25T19:59:56.373Z,60.03
2022-11-25T20:01:58.909Z,60.71
2022-11-25T20:04:03.455Z,60.64
2022-11-25T20:06:06.441Z,60.00
2022-11-25T20:08:19.122Z,60.62
2022-11-25T20:10:25.373Z,60.39
2022-11-25T20:12:30.220Z,60.31
2022-11-25T20:14:35.321Z,60.32
2022-11-25T20:16:41.276Z,60.64
2022-11-25T20:18:44.799Z,60.84
2022-11-25T20:20:51.953Z,60.90
2022-11-25T20:23:01.618Z,61.15
2022-11-25T20:25:07.917Z,61.27
2022-11-25T20:27:13.289Z,61.80
2022-11-25T20:29:20.107Z,61.53
2022-11-25T20:31:27.370Z,61.57
2022-11-25T20:33:33.153Z,61.39
2022-11-25T20:35:36.354Z,61.26
2022-11-25T20:37:52.231Z,61.68
2022-11-25T20:39:59.700Z,61.28
2022-11-25T20:42:03.859Z,61.52
2022-11-25T20:44:06.979Z,61.45
2022-11-25T20:46:18.521Z,61.78
2022-11-25T20:48:21.512Z,61.90
2022-11-25T20:50:24.311Z,61.87
2022-11-25T20:52:31.503Z,61.82
2022-11-25T20:54:36.426Z,62.42
2022-11-25T20:56:38.884Z,62.51
2022-11-25T20:58:41.078Z,62.68
2022-11-25T21:00:43.372Z,62.17
2022-11-25T21:02:46.236Z,62.46
2022-11-25T21:04:48.505Z,62.52
2022-11-25T21:06:50.627Z,62.40
2022-11-25T21:08:54.475Z,62.57
2022-11-25T21:10:58.224Z,62.65
2022-11-25T21:13:00.309Z,63.16
2022-11-25T21:15:02.515Z,63.51
2022-11-25T21:17:06.332Z,63.34
2022-11-25T21:19:08.749Z,63.23
2022-11-25T21:21:16.867Z,63.33
2022-11-25T21:23:22.629Z,63.73
2022-11-25T21:25:25.065Z,63.79
2022-11-25T21:27:28.550Z,64.26
2022-11-25T21:29:32.179Z,63.75
2022-11-25T21:31:34.402Z,63.68
2022-11-25T21:33:36.586Z,64.23
2022-11-25T21:35:42.022Z,64.08
2022-11-25T21:37:45.138Z,64.47
2022-11-25T21:39:47.272Z,64.42
2022-11-25T21:41:49.692Z,64.72
2022-11-25T21:43:51.948Z,65.41
2022-11-25T21:46:04.431Z,65.30
2022-11-25T21:48:17.680Z,65.48
2022-11-25T21:50:21.061Z,65.14
2022-11-25T21:52:23.295Z,65.37
2022-11-25T21:54:25.551Z,65.23
2022-11-25T21:56:32.708Z,65.63
2022-11-25T21:58:35.015Z,65.63
2022-11-25T22:00:37.732Z,65.83
2022-11-25T22:02:39.984Z,65.26
2022-11-25T22:04:42.348Z,65.93
2022-11-25T22:06:44.586Z,65.56
2022-11-25T22:08:46.788Z,65.66
2022-11-25T22:10:52.512Z,66.28
2022-11-25T22:12:54.729Z,66.03
2022-11-25T22:14:58.694Z,65.61
2022-11-25T22:17:04.266Z,66.05
2022-11-25T22:19:06.744Z,66.70
2022-11-25T22:21:13.387Z,66.14
2022-11-25T22:23:19.143Z,66.19
2022-11-25T22:25:23.371Z,66.24
2022-11-25T22:27:28.774Z,66.36
2022-11-25T22:29:38.330Z,66.48
2022-11-25T22:31:40.862Z,66.59
2022-11-25T22:33:43.087Z,66.20
2022-11-25T22:35:45.319Z,66.62
2022-11-25T22:37:54.795Z,66.58
2022-11-25T22:39:57.554Z,66.91
2022-11-25T22:42:05.552Z,66.77
2022-11-25T22:44:17.206Z,66.67
2022-11-25T22:46:19.897Z,66.95
2022-11-25T22:48:33.636Z,66.46
2022-11-25T22:50:36.131Z,66.93
2022-11-25T22:52:38.491Z,66.66
2022-11-25T22:54:40.661Z,67.13
2022-11-25T22:56:43.011Z,66.82
2022-11-25T22:58:46.413Z,67.19
2022-11-25T23:00:49.047Z,67.30
2022-11-25T23:02:54.786Z,67.70
2022-11-25T23:04:57.138Z,67.33
2022-11-25T23:06:59.329Z,67.08
2022-11-25T23:09:03.272Z,67.77
2022-11-25T23:11:06.515Z,67.15
2022-11-25T23:13:08.884Z,67.21
2022-11-25T23:15:15.411Z,67.30
2022-11-25T23:17:21.200Z,67.48
2022-11-25T23:19:23.528Z,66.78
2022-11-25T23:21:30.080Z,67.35
2022-11-25T23:23:32.301Z,67.52
2022-11-25T23:25:34.678Z,66.67
2022-11-25T23:27:36.949Z,66.81
2022-11-25T23:29:39.280Z,67.04
2022-11-25T23:31:41.302Z,67.34
2022-11-25T23:33:48.251Z,66.93
2022-11-25T23:35:50.159Z,67.13
2022-11-25T23:37:57.055Z,67.34
2022-11-25T23:39:59.029Z,67.43
2022-11-25T23:42:02.933Z,66.93
2022-11-25T23:44:16.354Z,67.03
2022-11-25T23:46:21.637Z,67.58
2022-11-25T23:48:27.970Z,67.75
2022-11-25T23:50:33.199Z,67.37
2022-11-25T23:52:35.075Z,67.53
2022-11-25T23:54:42.665Z,67.39
2022-11-25T23:56:44.553Z,67.23
2022-11-25T23:58:46.681Z,67.40
